Forum Star — WDC8278 — position and weather

sailwx.info

Track history (hours):
 
Tides and Currents Weather Stations Pressure Air Temp Water Temp Dewpoint Dewpoint Depression Visibility Wind Speed Wind Dir Waves Ship Positions

Forum Star

Owner: Forum Star LLC, Seattle, WA. More information available from US FCC via Universal Licensing System and Coast Guard Vessel Documentation Center.

Last reported at 2015-Mar-03 12:32 UTC. Time now 2015-Mar-03 12:44 UTC.
Position N 47°32' W 122°39'.

Length 40 m; draft 4.5 m.

Type: Fishing. MMSI: 367084450.

Date/timePositionNaut miles runAvg speedWind from/ knotsBaromVisibWave heightAir tempDewpointWater temp
2015-Mar-03 12:32N 47°32' W 122°39'0 0.0
2015-Mar-03 11:32N 47°32' W 122°39'0 0.0
2015-Mar-03 10:32N 47°32' W 122°39'0 0.0
2015-Mar-03 09:29N 47°32' W 122°39'0 0.0
2015-Mar-03 08:31N 47°32' W 122°39'0 0.0
2015-Mar-03 07:31N 47°32' W 122°39'0 0.0
2015-Mar-03 06:28N 47°32' W 122°39'0 0.0
2015-Mar-03 05:31N 47°32' W 122°39'0 0.0
2015-Mar-03 04:28N 47°32' W 122°39'0 0.0
2015-Mar-03 03:31N 47°32' W 122°39'0 0.0
2015-Mar-03 02:31N 47°32' W 122°39'0 0.0
2015-Mar-03 01:32N 47°32' W 122°39'0 0.0
2015-Mar-03 00:29N 47°32' W 122°39'0 0.0
2015-Mar-02 23:32N 47°32' W 122°39'0 0.0
2015-Mar-02 22:32N 47°32' W 122°39'0 0.0
2015-Mar-02 21:32N 47°32' W 122°39'0 0.0
2015-Mar-02 20:32N 47°32' W 122°39'0 0.0
2015-Mar-02 19:29N 47°32' W 122°39'0 0.0
2015-Mar-02 18:32N 47°32' W 122°39'0 0.0
2015-Mar-02 17:32N 47°32' W 122°39'0 0.0
2015-Mar-02 16:31N 47°32' W 122°39'0 0.0
2015-Mar-02 15:31N 47°32' W 122°39'0 0.0
2015-Mar-02 14:31N 47°32' W 122°39'0 0.0
2015-Mar-02 13:31N 47°32' W 122°39'0 0.0
2015-Mar-02 12:31N 47°32' W 122°39'0 0.0
2015-Mar-02 11:31N 47°32' W 122°39'0 0.0
2015-Mar-02 10:31N 47°32' W 122°39'0 0.0
2015-Mar-02 09:31N 47°32' W 122°39'0 0.0
2015-Mar-02 08:31N 47°32' W 122°39'0 0.0
2015-Mar-02 07:31N 47°32' W 122°39'0 0.0
2015-Mar-02 06:28N 47°32' W 122°39'0 0.0
2015-Mar-02 05:28N 47°32' W 122°39'0 0.0
2015-Mar-02 04:28N 47°32' W 122°39'0 0.0
2015-Mar-02 03:31N 47°32' W 122°39'0 0.0
2015-Mar-02 02:31N 47°32' W 122°39'0 0.0
2015-Mar-02 01:31N 47°32' W 122°39'0 0.0
2015-Mar-02 00:31N 47°32' W 122°39'0 0.2
2015-Mar-01 23:29N 47°33' W 122°38'5 4.9
2015-Mar-01 22:33N 47°37' W 122°35'7 7.0
2015-Mar-01 21:32N 47°43' W 122°33'3 3.1
2015-Mar-01 20:32N 47°45' W 122°29'2 1.5
2015-Mar-01 19:33N 47°46' W 122°27'5 5.1
2015-Mar-01 18:32N 47°41' W 122°24'0 0.2
2015-Mar-01 16:32N 47°41' W 122°24'0 0.0
2015-Mar-01 15:32N 47°41' W 122°24'0 0.0
2015-Mar-01 13:29N 47°41' W 122°24'0 0.0
2015-Mar-01 10:32N 47°41' W 122°24'0 0.0
2015-Mar-01 09:32N 47°41' W 122°24'0 0.0
2015-Mar-01 08:29N 47°41' W 122°24'0 0.0
2015-Mar-01 07:29N 47°41' W 122°24'0 0.0
2015-Mar-01 05:29N 47°41' W 122°24'0 0.0
2015-Mar-01 04:29N 47°41' W 122°24'0 0.0
2015-Mar-01 03:14N 47°41' W 122°24'0 0.0
2015-Mar-01 02:26N 47°41' W 122°24'0 0.0
2015-Mar-01 01:32N 47°41' W 122°24'0 0.0
2015-Mar-01 00:29N 47°41' W 122°24'1 1.3
2015-Feb-28 23:32N 47°40' W 122°26'5 4.3
2015-Feb-28 22:22N 47°35' W 122°27'5 5.6
2015-Feb-28 21:33N 47°35' W 122°34'4 3.9
2015-Feb-28 20:33N 47°33' W 122°38'1 0.6
2015-Feb-28 19:28N 47°32' W 122°39'0 0.0
2015-Feb-28 18:28N 47°32' W 122°39'0 0.0
2015-Feb-28 17:31N 47°32' W 122°39'0 0.0
2015-Feb-28 16:31N 47°32' W 122°39'0 0.0
2015-Feb-28 15:31N 47°32' W 122°39'0 0.0
2015-Feb-28 14:31N 47°32' W 122°39'0 0.0
2015-Feb-28 13:31N 47°32' W 122°39'0 0.0
2015-Feb-28 12:31N 47°32' W 122°39'0 0.0
2015-Feb-28 11:31N 47°32' W 122°39'0 0.0
2015-Feb-28 10:31N 47°32' W 122°39'0 0.0
2015-Feb-28 09:31N 47°32' W 122°39'0 0.0
2015-Feb-28 08:31N 47°32' W 122°39'0 0.0
2015-Feb-28 07:04N 47°32' W 122°39'0 0.0
2015-Feb-28 06:31N 47°32' W 122°39'0 0.0
2015-Feb-28 05:31N 47°32' W 122°39'0 0.0
2015-Feb-28 04:31N 47°32' W 122°39'0 0.0
2015-Feb-28 03:25N 47°32' W 122°39'0 0.0
2015-Feb-28 02:31N 47°32' W 122°39'0 0.0
2015-Feb-28 01:31N 47°32' W 122°39'0 0.0
2015-Feb-27 23:31N 47°32' W 122°39'0 0.0
2015-Feb-27 22:31N 47°32' W 122°39'0 0.0
2015-Feb-27 21:25N 47°32' W 122°39'0 0.0
2015-Feb-27 20:31N 47°32' W 122°39'0 0.0
2015-Feb-27 19:28N 47°32' W 122°39'0 0.0
2015-Feb-27 18:28N 47°32' W 122°39'0 0.0
2015-Feb-27 17:31N 47°32' W 122°39'0 0.0
2015-Feb-27 16:31N 47°32' W 122°39'0 0.0
2015-Feb-27 15:31N 47°32' W 122°39'0 0.0
2015-Feb-27 14:31N 47°32' W 122°39'0 0.0
2015-Feb-27 13:31N 47°32' W 122°39'0 0.0
2015-Feb-27 12:31N 47°32' W 122°39'0 0.0
2015-Feb-27 11:19N 47°32' W 122°39'0 0.0
2015-Feb-27 09:31N 47°32' W 122°39'0 0.0
2015-Feb-27 08:25N 47°32' W 122°39'0 0.0
2015-Feb-27 07:31N 47°32' W 122°39'0 0.0
2015-Feb-27 06:32N 47°32' W 122°39'0 0.0
2015-Feb-27 05:32N 47°32' W 122°39'0 0.0
2015-Feb-27 04:32N 47°32' W 122°39'0 0.0
2015-Feb-27 03:32N 47°32' W 122°39'0 0.0
2015-Feb-27 02:32N 47°32' W 122°39'0 0.0
2015-Feb-27 01:32N 47°32' W 122°39'0 0.0
2015-Feb-27 00:26N 47°32' W 122°39'0 0.0
2015-Feb-26 23:32N 47°32' W 122°39'0 0.0
2015-Feb-26 22:31N 47°32' W 122°39'0 0.0
2015-Feb-26 21:31N 47°32' W 122°39'0 0.0
2015-Feb-26 20:31N 47°32' W 122°39'0 0.0
2015-Feb-26 19:31N 47°32' W 122°39'0 0.0
2015-Feb-26 18:31N 47°32' W 122°39'0 0.0
2015-Feb-26 17:31N 47°32' W 122°39'0 0.0
2015-Feb-26 16:31N 47°32' W 122°39'0 0.0
2015-Feb-26 15:31N 47°32' W 122°39'0 0.0
2015-Feb-26 14:31N 47°32' W 122°39'0 0.0
2015-Feb-26 13:31N 47°32' W 122°39'0 0.0
2015-Feb-26 12:33N 47°32' W 122°39'0 0.0
2015-Feb-26 11:33N 47°32' W 122°39'0 0.0
2015-Feb-26 10:33N 47°32' W 122°39'0 0.0
2015-Feb-26 09:33N 47°32' W 122°39'0 0.0
2015-Feb-26 08:33N 47°32' W 122°39'0 0.0
2015-Feb-26 07:33N 47°32' W 122°39'0 0.0
2015-Feb-26 06:33N 47°32' W 122°39'0 0.0
2015-Feb-26 05:33N 47°32' W 122°39'0 0.0
2015-Feb-26 04:27N 47°32' W 122°39'0 0.0
2015-Feb-26 03:33N 47°32' W 122°39'0 0.0
2015-Feb-26 02:33N 47°32' W 122°39'0 0.0
2015-Feb-26 01:32N 47°32' W 122°39'0 0.0
2015-Feb-26 00:32N 47°32' W 122°39'0 0.0
2015-Feb-25 23:32N 47°32' W 122°39'0 0.0
2015-Feb-25 22:31N 47°32' W 122°39'0 0.0
2015-Feb-25 21:31N 47°32' W 122°39'0 0.0
2015-Feb-25 20:31N 47°32' W 122°39'0 0.0
2015-Feb-25 19:31N 47°32' W 122°39'0 0.0
2015-Feb-25 18:28N 47°32' W 122°39'0 0.0
2015-Feb-25 17:31N 47°32' W 122°39'0 0.0
2015-Feb-25 16:28N 47°32' W 122°39'1315.8
2015-Feb-25 15:39N 47°40' W 122°23'1394.2
2015-Feb-25 15:31N 47°32' W 122°39'0 0.0
2015-Feb-25 14:31N 47°32' W 122°39'1314.8
2015-Feb-25 13:39N 47°40' W 122°23'0 0.0
2015-Feb-25 13:33N 47°40' W 122°23'13353.1
2015-Feb-25 13:31N 47°32' W 122°39'13107.1
2015-Feb-25 13:24N 47°40' W 122°23'1314.6
2015-Feb-25 12:31N 47°32' W 122°39'13670.3
2015-Feb-25 12:30N 47°40' W 122°23'0 0.1
2015-Feb-25 12:24N 47°40' W 122°23'1314.6
2015-Feb-25 11:31N 47°32' W 122°39'0 0.0
2015-Feb-25 10:31N 47°32' W 122°39'0 0.0
2015-Feb-25 09:30N 47°32' W 122°39'1332.3
2015-Feb-25 09:06N 47°40' W 122°23'0 0.0
2015-Feb-25 08:48N 47°40' W 122°23'0 0.0
2015-Feb-25 08:33N 47°40' W 122°23'0 0.0
2015-Feb-25 08:33N 47°40' W 122°23'137708.9
2015-Feb-25 08:33N 47°32' W 122°39'0 0.0
2015-Feb-25 07:33N 47°32' W 122°39'0 0.0
2015-Feb-25 06:33N 47°32' W 122°39'0 0.0
2015-Feb-25 05:32N 47°32' W 122°39'0 0.0
2015-Feb-25 04:32N 47°32' W 122°39'0 0.0
2015-Feb-25 03:29N 47°32' W 122°39'1394.4
2015-Feb-25 03:21N 47°40' W 122°23'1315.8
2015-Feb-25 02:32N 47°32' W 122°39'13444.7
2015-Feb-25 02:30N 47°40' W 122°23'0 0.0
2015-Feb-25 01:33N 47°40' W 122°23'13872.9
2015-Feb-25 01:32N 47°32' W 122°39'1320.2
2015-Feb-25 00:54N 47°40' W 122°23'1335.4
2015-Feb-25 00:32N 47°32' W 122°39'0 0.0
2015-Feb-24 23:29N 47°32' W 122°39'0 0.0
2015-Feb-24 22:32N 47°32' W 122°39'0 0.0
2015-Feb-24 21:32N 47°32' W 122°39'13358.6
2015-Feb-24 21:30N 47°40' W 122°23'0 0.0
2015-Feb-24 20:57N 47°40' W 122°23'1331.0
2015-Feb-24 20:32N 47°32' W 122°39'13149.7
2015-Feb-24 20:27N 47°40' W 122°23'0 0.0
2015-Feb-24 20:27N 47°40' W 122°23'1314.1
2015-Feb-24 19:32N 47°32' W 122°39'1369.2
2015-Feb-24 19:21N 47°40' W 122°23'1315.8
2015-Feb-24 18:32N 47°32' W 122°39'1311.8
2015-Feb-24 17:27N 47°40' W 122°23'0 0.0
2015-Feb-24 17:27N 47°40' W 122°23'13963.6
2015-Feb-24 17:26N 47°32' W 122°39'0 0.0
2015-Feb-24 16:32N 47°32' W 122°39'0 0.0
2015-Feb-24 15:32N 47°32' W 122°39'0 0.0
2015-Feb-24 14:32N 47°32' W 122°39'13149.7
2015-Feb-24 14:27N 47°40' W 122°23'0 0.0
2015-Feb-24 13:33N 47°40' W 122°23'13906.9
2015-Feb-24 13:32N 47°32' W 122°39'13353.2
2015-Feb-24 13:30N 47°40' W 122°23'1313.3
2015-Feb-24 12:32N 47°32' W 122°39'13361.4
2015-Feb-24 12:30N 47°40' W 122°23'1312.7
2015-Feb-24 11:29N 47°32' W 122°39'0 0.0
2015-Feb-24 10:32N 47°32' W 122°39'1353.4
2015-Feb-24 10:18N 47°40' W 122°23'1316.8
2015-Feb-24 09:32N 47°32' W 122°39'13148.2
2015-Feb-24 09:27N 47°40' W 122°23'1314.1
2015-Feb-24 08:32N 47°32' W 122°39'13361.4
2015-Feb-24 08:30N 47°40' W 122°23'0 0.0
2015-Feb-24 08:09N 47°40' W 122°23'0 0.0
2015-Feb-24 07:33N 47°40' W 122°23'13159.5
2015-Feb-24 07:28N 47°32' W 122°39'1330.6
2015-Feb-24 07:03N 47°40' W 122°23'1322.1
2015-Feb-24 06:28N 47°32' W 122°39'0 0.0
2015-Feb-24 05:31N 47°32' W 122°39'1318.0
2015-Feb-24 04:48N 47°40' W 122°23'1344.8
2015-Feb-24 04:31N 47°32' W 122°39'0 0.0
2015-Feb-24 03:31N 47°32' W 122°39'0 0.0
2015-Feb-24 02:31N 47°32' W 122°39'0 0.0
2015-Feb-24 01:28N 47°32' W 122°39'0 0.0
2015-Feb-24 00:31N 47°32' W 122°39'0 0.0
2015-Feb-23 23:28N 47°32' W 122°39'0 0.0
2015-Feb-23 22:31N 47°32' W 122°39'1358.5
2015-Feb-23 22:18N 47°40' W 122°23'1316.6
2015-Feb-23 21:31N 47°32' W 122°39'0 0.0
2015-Feb-23 20:31N 47°32' W 122°39'13670.3
2015-Feb-23 20:30N 47°40' W 122°23'0 0.0
2015-Feb-23 20:30N 47°40' W 122°23'1312.5
2015-Feb-23 19:28N 47°32' W 122°39'13670.3
2015-Feb-23 19:27N 47°40' W 122°23'0 0.0
2015-Feb-23 19:15N 47°40' W 122°23'1317.6
2015-Feb-23 18:31N 47°32' W 122°39'0 0.0
2015-Feb-23 17:31N 47°32' W 122°39'0 0.0
2015-Feb-23 16:31N 47°32' W 122°39'1317.9
2015-Feb-23 15:48N 47°40' W 122°23'1345.8
2015-Feb-23 15:31N 47°32' W 122°39'1313.3
2015-Feb-23 14:33N 47°40' W 122°23'0 0.0
2015-Feb-23 14:33N 47°40' W 122°23'13700.8
2015-Feb-23 14:31N 47°32' W 122°39'13 6.5
2015-Feb-23 12:33N 47°40' W 122°23'0 0.0
2015-Feb-23 12:33N 47°40' W 122°23'1340.4
2015-Feb-23 12:13N 47°32' W 122°39'0 0.0
2015-Feb-23 11:33N 47°32' W 122°39'1315417.8
2015-Feb-23 11:33N 47°40' W 122°23'0 0.0
2015-Feb-23 11:33N 47°40' W 122°23'0 0.0
2015-Feb-23 10:33N 47°40' W 122°23'0 0.0
2015-Feb-23 10:33N 47°40' W 122°23'13292.7
2015-Feb-23 10:30N 47°32' W 122°39'1313.5
2015-Feb-23 09:33N 47°40' W 122°23'0 0.0
2015-Feb-23 09:33N 47°40' W 122°23'13289.1
2015-Feb-23 09:30N 47°32' W 122°39'0 0.0
2015-Feb-23 08:33N 47°32' W 122°39'13248.7
2015-Feb-23 08:30N 47°40' W 122°23'0 0.0
2015-Feb-23 08:12N 47°40' W 122°23'1319.8
2015-Feb-23 07:33N 47°32' W 122°39'13126.3
2015-Feb-23 07:27N 47°40' W 122°23'0 0.0
2015-Feb-23 07:27N 47°40' W 122°23'0 0.0
2015-Feb-23 06:57N 47°40' W 122°23'1332.3
2015-Feb-23 06:33N 47°32' W 122°39'139250.7
2015-Feb-23 06:33N 47°40' W 122°23'1312.9
2015-Feb-23 05:33N 47°32' W 122°39'136607.6
2015-Feb-23 05:33N 47°40' W 122°23'1312.9
2015-Feb-23 04:33N 47°32' W 122°39'137708.9
2015-Feb-23 04:33N 47°40' W 122°23'0 0.0
2015-Feb-23 04:21N 47°40' W 122°23'1316.2
2015-Feb-23 03:33N 47°32' W 122°39'139250.7
2015-Feb-23 03:33N 47°40' W 122°23'0 0.0
2015-Feb-23 03:21N 47°40' W 122°23'1316.2
2015-Feb-23 02:33N 47°32' W 122°39'1315417.8
2015-Feb-23 02:33N 47°40' W 122°23'0 0.0
2015-Feb-23 02:30N 47°40' W 122°23'1313.5
2015-Feb-23 01:33N 47°32' W 122°39'139250.7
2015-Feb-23 01:33N 47°40' W 122°23'0 0.0
2015-Feb-23 01:00N 47°40' W 122°23'818.6
2015-Feb-23 00:33N 47°34' W 122°32'8136.2
2015-Feb-23 00:30N 47°40' W 122°23'9 9.4
2015-Feb-22 23:33N 47°36' W 122°35'917.4
2015-Feb-22 23:03N 47°40' W 122°23'0 0.0
2015-Feb-22 22:33N 47°40' W 122°23'0 0.0
2015-Feb-22 22:33N 47°40' W 122°23'0 0.0
2015-Feb-22 21:33N 47°40' W 122°23'91815.7
2015-Feb-22 21:33N 47°37' W 122°35'924.8
2015-Feb-22 21:12N 47°40' W 122°23'0 0.0
2015-Feb-22 20:33N 47°40' W 122°23'133303.8
2015-Feb-22 20:33N 47°32' W 122°39'1315.1
2015-Feb-22 19:42N 47°40' W 122°23'0 0.0
2015-Feb-22 19:33N 47°40' W 122°23'131445.4
2015-Feb-22 19:32N 47°32' W 122°39'13140.6
2015-Feb-22 19:27N 47°40' W 122°23'0 0.0
2015-Feb-22 18:33N 47°40' W 122°23'131541.8
2015-Feb-22 18:32N 47°32' W 122°39'13135.6
2015-Feb-22 18:27N 47°40' W 122°23'1314.2
2015-Feb-22 17:32N 47°32' W 122°39'1367.3
2015-Feb-22 17:21N 47°40' W 122°23'0 0.1
2015-Feb-22 17:15N 47°40' W 122°23'1318.0
2015-Feb-22 16:32N 47°32' W 122°39'13353.1
2015-Feb-22 16:30N 47°40' W 122°23'0 0.0
2015-Feb-22 16:21N 47°40' W 122°23'1315.9
2015-Feb-22 15:32N 47°32' W 122°39'13148.2
2015-Feb-22 15:27N 47°40' W 122°23'0 0.1
2015-Feb-22 15:21N 47°40' W 122°23'0 0.0
2015-Feb-22 14:33N 47°40' W 122°23'13963.6
2015-Feb-22 14:32N 47°32' W 122°39'1367.5
2015-Feb-22 14:21N 47°40' W 122°23'0 0.0
2015-Feb-22 13:33N 47°40' W 122°23'131005.5
2015-Feb-22 13:32N 47°32' W 122°39'1367.4
2015-Feb-22 13:21N 47°40' W 122°23'1314.9
2015-Feb-22 12:29N 47°32' W 122°39'1393.8
2015-Feb-22 12:21N 47°40' W 122°23'0 0.1
2015-Feb-22 12:15N 47°40' W 122°23'0 0.0
2015-Feb-22 11:33N 47°40' W 122°23'0 0.0
2015-Feb-22 11:30N 47°40' W 122°23'131284.8
2015-Feb-22 11:29N 47°32' W 122°39'0 0.0
2015-Feb-22 10:32N 47°32' W 122°39'13340.1
2015-Feb-22 10:30N 47°40' W 122°23'0 0.0
2015-Feb-22 10:30N 47°40' W 122°23'0 0.0
2015-Feb-22 09:33N 47°40' W 122°23'13963.6
2015-Feb-22 09:32N 47°32' W 122°39'1391.8
2015-Feb-22 09:24N 47°40' W 122°23'1314.9
2015-Feb-22 08:32N 47°32' W 122°39'13350.4
2015-Feb-22 08:30N 47°40' W 122°23'0 0.1
2015-Feb-22 08:24N 47°40' W 122°23'0 0.0
2015-Feb-22 07:39N 47°40' W 122°23'0 0.0
2015-Feb-22 07:33N 47°40' W 122°23'131005.5
2015-Feb-22 07:32N 47°32' W 122°39'0 0.0
2015-Feb-22 06:33N 47°32' W 122°39'135139.3
2015-Feb-22 06:33N 47°40' W 122°23'0 0.0
2015-Feb-22 06:24N 47°40' W 122°23'1315.2
2015-Feb-22 05:33N 47°32' W 122°39'1352.5
2015-Feb-22 05:18N 47°40' W 122°23'1317.0
2015-Feb-22 04:33N 47°32' W 122°39'0 0.0
2015-Feb-22 03:33N 47°32' W 122°39'0 0.0
2015-Feb-22 02:33N 47°32' W 122°39'0 0.0
2015-Feb-22 01:33N 47°32' W 122°39'0 0.0
2015-Feb-22 00:33N 47°32' W 122°39'13132.5
2015-Feb-22 00:27N 47°40' W 122°23'1314.2
2015-Feb-21 23:33N 47°32' W 122°39'0 0.0
2015-Feb-21 22:33N 47°32' W 122°39'0 0.0
2015-Feb-21 21:33N 47°32' W 122°39'1328.6
2015-Feb-21 21:06N 47°40' W 122°23'1323.3
2015-Feb-21 20:33N 47°32' W 122°39'0 0.0
2015-Feb-21 19:33N 47°32' W 122°39'1323.6
2015-Feb-21 19:00N 47°40' W 122°23'1327.3
2015-Feb-21 18:32N 47°32' W 122°39'0 0.0
2015-Feb-21 17:32N 47°32' W 122°39'0 0.0
2015-Feb-21 16:32N 47°32' W 122°39'0 0.0
2015-Feb-21 15:32N 47°32' W 122°39'1324.3
2015-Feb-21 15:00N 47°40' W 122°23'1327.3
2015-Feb-21 14:32N 47°32' W 122°39'0 0.0
2015-Feb-21 13:32N 47°32' W 122°39'  
Track history (hours):
 
Tides and Currents Weather Stations Pressure Air Temp Water Temp Dewpoint Dewpoint Depression Visibility Wind Speed Wind Dir Waves Ship Positions

Forum Star

Owner: Forum Star LLC, Seattle, WA. More information available from US FCC via Universal Licensing System and Coast Guard Vessel Documentation Center.

Last reported at 2015-Mar-03 12:32 UTC. Time now 2015-Mar-03 12:44 UTC.
Position N 47°32' W 122°39'.

Length 40 m; draft 4.5 m.

Type: Fishing. MMSI: 367084450.

Date/timePositionNaut miles runAvg speedWind from/ knotsBaromVisibWave heightAir tempDewpointWater temp
2015-Mar-03 12:32N 47°32' W 122°39'0 0.0
2015-Mar-03 11:32N 47°32' W 122°39'0 0.0
2015-Mar-03 10:32N 47°32' W 122°39'0 0.0
2015-Mar-03 09:29N 47°32' W 122°39'0 0.0
2015-Mar-03 08:31N 47°32' W 122°39'0 0.0
2015-Mar-03 07:31N 47°32' W 122°39'0 0.0
2015-Mar-03 06:28N 47°32' W 122°39'0 0.0
2015-Mar-03 05:31N 47°32' W 122°39'0 0.0
2015-Mar-03 04:28N 47°32' W 122°39'0 0.0
2015-Mar-03 03:31N 47°32' W 122°39'0 0.0
2015-Mar-03 02:31N 47°32' W 122°39'0 0.0
2015-Mar-03 01:32N 47°32' W 122°39'0 0.0
2015-Mar-03 00:29N 47°32' W 122°39'0 0.0
2015-Mar-02 23:32N 47°32' W 122°39'0 0.0
2015-Mar-02 22:32N 47°32' W 122°39'0 0.0
2015-Mar-02 21:32N 47°32' W 122°39'0 0.0
2015-Mar-02 20:32N 47°32' W 122°39'0 0.0
2015-Mar-02 19:29N 47°32' W 122°39'0 0.0
2015-Mar-02 18:32N 47°32' W 122°39'0 0.0
2015-Mar-02 17:32N 47°32' W 122°39'0 0.0
2015-Mar-02 16:31N 47°32' W 122°39'0 0.0
2015-Mar-02 15:31N 47°32' W 122°39'0 0.0
2015-Mar-02 14:31N 47°32' W 122°39'0 0.0
2015-Mar-02 13:31N 47°32' W 122°39'0 0.0
2015-Mar-02 12:31N 47°32' W 122°39'0 0.0
2015-Mar-02 11:31N 47°32' W 122°39'0 0.0
2015-Mar-02 10:31N 47°32' W 122°39'0 0.0
2015-Mar-02 09:31N 47°32' W 122°39'0 0.0
2015-Mar-02 08:31N 47°32' W 122°39'0 0.0
2015-Mar-02 07:31N 47°32' W 122°39'0 0.0
2015-Mar-02 06:28N 47°32' W 122°39'0 0.0
2015-Mar-02 05:28N 47°32' W 122°39'0 0.0
2015-Mar-02 04:28N 47°32' W 122°39'0 0.0
2015-Mar-02 03:31N 47°32' W 122°39'0 0.0
2015-Mar-02 02:31N 47°32' W 122°39'0 0.0
2015-Mar-02 01:31N 47°32' W 122°39'0 0.0
2015-Mar-02 00:31N 47°32' W 122°39'0 0.2
2015-Mar-01 23:29N 47°33' W 122°38'5 4.9
2015-Mar-01 22:33N 47°37' W 122°35'7 7.0
2015-Mar-01 21:32N 47°43' W 122°33'3 3.1
2015-Mar-01 20:32N 47°45' W 122°29'2 1.5
2015-Mar-01 19:33N 47°46' W 122°27'5 5.1
2015-Mar-01 18:32N 47°41' W 122°24'0 0.2
2015-Mar-01 16:32N 47°41' W 122°24'0 0.0
2015-Mar-01 15:32N 47°41' W 122°24'0 0.0
2015-Mar-01 13:29N 47°41' W 122°24'0 0.0
2015-Mar-01 10:32N 47°41' W 122°24'0 0.0
2015-Mar-01 09:32N 47°41' W 122°24'0 0.0
2015-Mar-01 08:29N 47°41' W 122°24'0 0.0
2015-Mar-01 07:29N 47°41' W 122°24'0 0.0
2015-Mar-01 05:29N 47°41' W 122°24'0 0.0
2015-Mar-01 04:29N 47°41' W 122°24'0 0.0
2015-Mar-01 03:14N 47°41' W 122°24'0 0.0
2015-Mar-01 02:26N 47°41' W 122°24'0 0.0
2015-Mar-01 01:32N 47°41' W 122°24'0 0.0
2015-Mar-01 00:29N 47°41' W 122°24'1 1.3
2015-Feb-28 23:32N 47°40' W 122°26'5 4.3
2015-Feb-28 22:22N 47°35' W 122°27'5 5.6
2015-Feb-28 21:33N 47°35' W 122°34'4 3.9
2015-Feb-28 20:33N 47°33' W 122°38'1 0.6
2015-Feb-28 19:28N 47°32' W 122°39'0 0.0
2015-Feb-28 18:28N 47°32' W 122°39'0 0.0
2015-Feb-28 17:31N 47°32' W 122°39'0 0.0
2015-Feb-28 16:31N 47°32' W 122°39'0 0.0
2015-Feb-28 15:31N 47°32' W 122°39'0 0.0
2015-Feb-28 14:31N 47°32' W 122°39'0 0.0
2015-Feb-28 13:31N 47°32' W 122°39'0 0.0
2015-Feb-28 12:31N 47°32' W 122°39'0 0.0
2015-Feb-28 11:31N 47°32' W 122°39'0 0.0
2015-Feb-28 10:31N 47°32' W 122°39'0 0.0
2015-Feb-28 09:31N 47°32' W 122°39'0 0.0
2015-Feb-28 08:31N 47°32' W 122°39'0 0.0
2015-Feb-28 07:04N 47°32' W 122°39'0 0.0
2015-Feb-28 06:31N 47°32' W 122°39'0 0.0
2015-Feb-28 05:31N 47°32' W 122°39'0 0.0
2015-Feb-28 04:31N 47°32' W 122°39'0 0.0
2015-Feb-28 03:25N 47°32' W 122°39'0 0.0
2015-Feb-28 02:31N 47°32' W 122°39'0 0.0
2015-Feb-28 01:31N 47°32' W 122°39'0 0.0
2015-Feb-27 23:31N 47°32' W 122°39'0 0.0
2015-Feb-27 22:31N 47°32' W 122°39'0 0.0
2015-Feb-27 21:25N 47°32' W 122°39'0 0.0
2015-Feb-27 20:31N 47°32' W 122°39'0 0.0
2015-Feb-27 19:28N 47°32' W 122°39'0 0.0
2015-Feb-27 18:28N 47°32' W 122°39'0 0.0
2015-Feb-27 17:31N 47°32' W 122°39'0 0.0
2015-Feb-27 16:31N 47°32' W 122°39'0 0.0
2015-Feb-27 15:31N 47°32' W 122°39'0 0.0
2015-Feb-27 14:31N 47°32' W 122°39'0 0.0
2015-Feb-27 13:31N 47°32' W 122°39'0 0.0
2015-Feb-27 12:31N 47°32' W 122°39'0 0.0
2015-Feb-27 11:19N 47°32' W 122°39'0 0.0
2015-Feb-27 09:31N 47°32' W 122°39'0 0.0
2015-Feb-27 08:25N 47°32' W 122°39'0 0.0
2015-Feb-27 07:31N 47°32' W 122°39'0 0.0
2015-Feb-27 06:32N 47°32' W 122°39'0 0.0
2015-Feb-27 05:32N 47°32' W 122°39'0 0.0
2015-Feb-27 04:32N 47°32' W 122°39'0 0.0
2015-Feb-27 03:32N 47°32' W 122°39'0 0.0
2015-Feb-27 02:32N 47°32' W 122°39'0 0.0
2015-Feb-27 01:32N 47°32' W 122°39'0 0.0
2015-Feb-27 00:26N 47°32' W 122°39'0 0.0
2015-Feb-26 23:32N 47°32' W 122°39'0 0.0
2015-Feb-26 22:31N 47°32' W 122°39'0 0.0
2015-Feb-26 21:31N 47°32' W 122°39'0 0.0
2015-Feb-26 20:31N 47°32' W 122°39'0 0.0
2015-Feb-26 19:31N 47°32' W 122°39'0 0.0
2015-Feb-26 18:31N 47°32' W 122°39'0 0.0
2015-Feb-26 17:31N 47°32' W 122°39'0 0.0
2015-Feb-26 16:31N 47°32' W 122°39'0 0.0
2015-Feb-26 15:31N 47°32' W 122°39'0 0.0
2015-Feb-26 14:31N 47°32' W 122°39'0 0.0
2015-Feb-26 13:31N 47°32' W 122°39'0 0.0
2015-Feb-26 12:33N 47°32' W 122°39'0 0.0
2015-Feb-26 11:33N 47°32' W 122°39'0 0.0
2015-Feb-26 10:33N 47°32' W 122°39'0 0.0
2015-Feb-26 09:33N 47°32' W 122°39'0 0.0
2015-Feb-26 08:33N 47°32' W 122°39'0 0.0
2015-Feb-26 07:33N 47°32' W 122°39'0 0.0
2015-Feb-26 06:33N 47°32' W 122°39'0 0.0
2015-Feb-26 05:33N 47°32' W 122°39'0 0.0
2015-Feb-26 04:27N 47°32' W 122°39'0 0.0
2015-Feb-26 03:33N 47°32' W 122°39'0 0.0
2015-Feb-26 02:33N 47°32' W 122°39'0 0.0
2015-Feb-26 01:32N 47°32' W 122°39'0 0.0
2015-Feb-26 00:32N 47°32' W 122°39'0 0.0
2015-Feb-25 23:32N 47°32' W 122°39'0 0.0
2015-Feb-25 22:31N 47°32' W 122°39'0 0.0
2015-Feb-25 21:31N 47°32' W 122°39'0 0.0
2015-Feb-25 20:31N 47°32' W 122°39'0 0.0
2015-Feb-25 19:31N 47°32' W 122°39'0 0.0
2015-Feb-25 18:28N 47°32' W 122°39'0 0.0
2015-Feb-25 17:31N 47°32' W 122°39'0 0.0
2015-Feb-25 16:28N 47°32' W 122°39'1315.8
2015-Feb-25 15:39N 47°40' W 122°23'1394.2
2015-Feb-25 15:31N 47°32' W 122°39'0 0.0
2015-Feb-25 14:31N 47°32' W 122°39'1314.8
2015-Feb-25 13:39N 47°40' W 122°23'0 0.0
2015-Feb-25 13:33N 47°40' W 122°23'13353.1
2015-Feb-25 13:31N 47°32' W 122°39'13107.1
2015-Feb-25 13:24N 47°40' W 122°23'1314.6
2015-Feb-25 12:31N 47°32' W 122°39'13670.3
2015-Feb-25 12:30N 47°40' W 122°23'0 0.1
2015-Feb-25 12:24N 47°40' W 122°23'1314.6
2015-Feb-25 11:31N 47°32' W 122°39'0 0.0
2015-Feb-25 10:31N 47°32' W 122°39'0 0.0
2015-Feb-25 09:30N 47°32' W 122°39'1332.3
2015-Feb-25 09:06N 47°40' W 122°23'0 0.0
2015-Feb-25 08:48N 47°40' W 122°23'0 0.0
2015-Feb-25 08:33N 47°40' W 122°23'0 0.0
2015-Feb-25 08:33N 47°40' W 122°23'137708.9
2015-Feb-25 08:33N 47°32' W 122°39'0 0.0
2015-Feb-25 07:33N 47°32' W 122°39'0 0.0
2015-Feb-25 06:33N 47°32' W 122°39'0 0.0
2015-Feb-25 05:32N 47°32' W 122°39'0 0.0
2015-Feb-25 04:32N 47°32' W 122°39'0 0.0
2015-Feb-25 03:29N 47°32' W 122°39'1394.4
2015-Feb-25 03:21N 47°40' W 122°23'1315.8
2015-Feb-25 02:32N 47°32' W 122°39'13444.7
2015-Feb-25 02:30N 47°40' W 122°23'0 0.0
2015-Feb-25 01:33N 47°40' W 122°23'13872.9
2015-Feb-25 01:32N 47°32' W 122°39'1320.2
2015-Feb-25 00:54N 47°40' W 122°23'1335.4
2015-Feb-25 00:32N 47°32' W 122°39'0 0.0
2015-Feb-24 23:29N 47°32' W 122°39'0 0.0
2015-Feb-24 22:32N 47°32' W 122°39'0 0.0
2015-Feb-24 21:32N 47°32' W 122°39'13358.6
2015-Feb-24 21:30N 47°40' W 122°23'0 0.0
2015-Feb-24 20:57N 47°40' W 122°23'1331.0
2015-Feb-24 20:32N 47°32' W 122°39'13149.7
2015-Feb-24 20:27N 47°40' W 122°23'0 0.0
2015-Feb-24 20:27N 47°40' W 122°23'1314.1
2015-Feb-24 19:32N 47°32' W 122°39'1369.2
2015-Feb-24 19:21N 47°40' W 122°23'1315.8
2015-Feb-24 18:32N 47°32' W 122°39'1311.8
2015-Feb-24 17:27N 47°40' W 122°23'0 0.0
2015-Feb-24 17:27N 47°40' W 122°23'13963.6
2015-Feb-24 17:26N 47°32' W 122°39'0 0.0
2015-Feb-24 16:32N 47°32' W 122°39'0 0.0
2015-Feb-24 15:32N 47°32' W 122°39'0 0.0
2015-Feb-24 14:32N 47°32' W 122°39'13149.7
2015-Feb-24 14:27N 47°40' W 122°23'0 0.0
2015-Feb-24 13:33N 47°40' W 122°23'13906.9
2015-Feb-24 13:32N 47°32' W 122°39'13353.2
2015-Feb-24 13:30N 47°40' W 122°23'1313.3
2015-Feb-24 12:32N 47°32' W 122°39'13361.4
2015-Feb-24 12:30N 47°40' W 122°23'1312.7
2015-Feb-24 11:29N 47°32' W 122°39'0 0.0
2015-Feb-24 10:32N 47°32' W 122°39'1353.4
2015-Feb-24 10:18N 47°40' W 122°23'1316.8
2015-Feb-24 09:32N 47°32' W 122°39'13148.2
2015-Feb-24 09:27N 47°40' W 122°23'1314.1
2015-Feb-24 08:32N 47°32' W 122°39'13361.4
2015-Feb-24 08:30N 47°40' W 122°23'0 0.0
2015-Feb-24 08:09N 47°40' W 122°23'0 0.0
2015-Feb-24 07:33N 47°40' W 122°23'13159.5
2015-Feb-24 07:28N 47°32' W 122°39'1330.6
2015-Feb-24 07:03N 47°40' W 122°23'1322.1
2015-Feb-24 06:28N 47°32' W 122°39'0 0.0
2015-Feb-24 05:31N 47°32' W 122°39'1318.0
2015-Feb-24 04:48N 47°40' W 122°23'1344.8
2015-Feb-24 04:31N 47°32' W 122°39'0 0.0
2015-Feb-24 03:31N 47°32' W 122°39'0 0.0
2015-Feb-24 02:31N 47°32' W 122°39'0 0.0
2015-Feb-24 01:28N 47°32' W 122°39'0 0.0
2015-Feb-24 00:31N 47°32' W 122°39'0 0.0
2015-Feb-23 23:28N 47°32' W 122°39'0 0.0
2015-Feb-23 22:31N 47°32' W 122°39'1358.5
2015-Feb-23 22:18N 47°40' W 122°23'1316.6
2015-Feb-23 21:31N 47°32' W 122°39'0 0.0
2015-Feb-23 20:31N 47°32' W 122°39'13670.3
2015-Feb-23 20:30N 47°40' W 122°23'0 0.0
2015-Feb-23 20:30N 47°40' W 122°23'1312.5
2015-Feb-23 19:28N 47°32' W 122°39'13670.3
2015-Feb-23 19:27N 47°40' W 122°23'0 0.0
2015-Feb-23 19:15N 47°40' W 122°23'1317.6
2015-Feb-23 18:31N 47°32' W 122°39'0 0.0
2015-Feb-23 17:31N 47°32' W 122°39'0 0.0
2015-Feb-23 16:31N 47°32' W 122°39'1317.9
2015-Feb-23 15:48N 47°40' W 122°23'1345.8
2015-Feb-23 15:31N 47°32' W 122°39'1313.3
2015-Feb-23 14:33N 47°40' W 122°23'0 0.0
2015-Feb-23 14:33N 47°40' W 122°23'13700.8
2015-Feb-23 14:31N 47°32' W 122°39'13 6.5
2015-Feb-23 12:33N 47°40' W 122°23'0 0.0
2015-Feb-23 12:33N 47°40' W 122°23'1340.4
2015-Feb-23 12:13N 47°32' W 122°39'0 0.0
2015-Feb-23 11:33N 47°32' W 122°39'1315417.8
2015-Feb-23 11:33N 47°40' W 122°23'0 0.0
2015-Feb-23 11:33N 47°40' W 122°23'0 0.0
2015-Feb-23 10:33N 47°40' W 122°23'0 0.0
2015-Feb-23 10:33N 47°40' W 122°23'13292.7
2015-Feb-23 10:30N 47°32' W 122°39'1313.5
2015-Feb-23 09:33N 47°40' W 122°23'0 0.0
2015-Feb-23 09:33N 47°40' W 122°23'13289.1
2015-Feb-23 09:30N 47°32' W 122°39'0 0.0
2015-Feb-23 08:33N 47°32' W 122°39'13248.7
2015-Feb-23 08:30N 47°40' W 122°23'0 0.0
2015-Feb-23 08:12N 47°40' W 122°23'1319.8
2015-Feb-23 07:33N 47°32' W 122°39'13126.3
2015-Feb-23 07:27N 47°40' W 122°23'0 0.0
2015-Feb-23 07:27N 47°40' W 122°23'0 0.0
2015-Feb-23 06:57N 47°40' W 122°23'1332.3
2015-Feb-23 06:33N 47°32' W 122°39'139250.7
2015-Feb-23 06:33N 47°40' W 122°23'1312.9
2015-Feb-23 05:33N 47°32' W 122°39'136607.6
2015-Feb-23 05:33N 47°40' W 122°23'1312.9
2015-Feb-23 04:33N 47°32' W 122°39'137708.9
2015-Feb-23 04:33N 47°40' W 122°23'0 0.0
2015-Feb-23 04:21N 47°40' W 122°23'1316.2
2015-Feb-23 03:33N 47°32' W 122°39'139250.7
2015-Feb-23 03:33N 47°40' W 122°23'0 0.0
2015-Feb-23 03:21N 47°40' W 122°23'1316.2
2015-Feb-23 02:33N 47°32' W 122°39'1315417.8
2015-Feb-23 02:33N 47°40' W 122°23'0 0.0
2015-Feb-23 02:30N 47°40' W 122°23'1313.5
2015-Feb-23 01:33N 47°32' W 122°39'139250.7
2015-Feb-23 01:33N 47°40' W 122°23'0 0.0
2015-Feb-23 01:00N 47°40' W 122°23'818.6
2015-Feb-23 00:33N 47°34' W 122°32'8136.2
2015-Feb-23 00:30N 47°40' W 122°23'9 9.4
2015-Feb-22 23:33N 47°36' W 122°35'917.4
2015-Feb-22 23:03N 47°40' W 122°23'0 0.0
2015-Feb-22 22:33N 47°40' W 122°23'0 0.0
2015-Feb-22 22:33N 47°40' W 122°23'0 0.0
2015-Feb-22 21:33N 47°40' W 122°23'91815.7
2015-Feb-22 21:33N 47°37' W 122°35'924.8
2015-Feb-22 21:12N 47°40' W 122°23'0 0.0
2015-Feb-22 20:33N 47°40' W 122°23'133303.8
2015-Feb-22 20:33N 47°32' W 122°39'1315.1
2015-Feb-22 19:42N 47°40' W 122°23'0 0.0
2015-Feb-22 19:33N 47°40' W 122°23'131445.4
2015-Feb-22 19:32N 47°32' W 122°39'13140.6
2015-Feb-22 19:27N 47°40' W 122°23'0 0.0
2015-Feb-22 18:33N 47°40' W 122°23'131541.8
2015-Feb-22 18:32N 47°32' W 122°39'13135.6
2015-Feb-22 18:27N 47°40' W 122°23'1314.2
2015-Feb-22 17:32N 47°32' W 122°39'1367.3
2015-Feb-22 17:21N 47°40' W 122°23'0 0.1
2015-Feb-22 17:15N 47°40' W 122°23'1318.0
2015-Feb-22 16:32N 47°32' W 122°39'13353.1
2015-Feb-22 16:30N 47°40' W 122°23'0 0.0
2015-Feb-22 16:21N 47°40' W 122°23'1315.9
2015-Feb-22 15:32N 47°32' W 122°39'13148.2
2015-Feb-22 15:27N 47°40' W 122°23'0 0.1
2015-Feb-22 15:21N 47°40' W 122°23'0 0.0
2015-Feb-22 14:33N 47°40' W 122°23'13963.6
2015-Feb-22 14:32N 47°32' W 122°39'1367.5
2015-Feb-22 14:21N 47°40' W 122°23'0 0.0
2015-Feb-22 13:33N 47°40' W 122°23'131005.5
2015-Feb-22 13:32N 47°32' W 122°39'1367.4
2015-Feb-22 13:21N 47°40' W 122°23'1314.9
2015-Feb-22 12:29N 47°32' W 122°39'1393.8
2015-Feb-22 12:21N 47°40' W 122°23'0 0.1
2015-Feb-22 12:15N 47°40' W 122°23'0 0.0
2015-Feb-22 11:33N 47°40' W 122°23'0 0.0
2015-Feb-22 11:30N 47°40' W 122°23'131284.8
2015-Feb-22 11:29N 47°32' W 122°39'0 0.0
2015-Feb-22 10:32N 47°32' W 122°39'13340.1
2015-Feb-22 10:30N 47°40' W 122°23'0 0.0
2015-Feb-22 10:30N 47°40' W 122°23'0 0.0
2015-Feb-22 09:33N 47°40' W 122°23'13963.6
2015-Feb-22 09:32N 47°32' W 122°39'1391.8
2015-Feb-22 09:24N 47°40' W 122°23'1314.9
2015-Feb-22 08:32N 47°32' W 122°39'13350.4
2015-Feb-22 08:30N 47°40' W 122°23'0 0.1
2015-Feb-22 08:24N 47°40' W 122°23'0 0.0
2015-Feb-22 07:39N 47°40' W 122°23'0 0.0
2015-Feb-22 07:33N 47°40' W 122°23'131005.5
2015-Feb-22 07:32N 47°32' W 122°39'0 0.0
2015-Feb-22 06:33N 47°32' W 122°39'135139.3
2015-Feb-22 06:33N 47°40' W 122°23'0 0.0
2015-Feb-22 06:24N 47°40' W 122°23'1315.2
2015-Feb-22 05:33N 47°32' W 122°39'1352.5
2015-Feb-22 05:18N 47°40' W 122°23'1317.0
2015-Feb-22 04:33N 47°32' W 122°39'0 0.0
2015-Feb-22 03:33N 47°32' W 122°39'0 0.0
2015-Feb-22 02:33N 47°32' W 122°39'0 0.0
2015-Feb-22 01:33N 47°32' W 122°39'0 0.0
2015-Feb-22 00:33N 47°32' W 122°39'13132.5
2015-Feb-22 00:27N 47°40' W 122°23'1314.2
2015-Feb-21 23:33N 47°32' W 122°39'0 0.0
2015-Feb-21 22:33N 47°32' W 122°39'0 0.0
2015-Feb-21 21:33N 47°32' W 122°39'1328.6
2015-Feb-21 21:06N 47°40' W 122°23'1323.3
2015-Feb-21 20:33N 47°32' W 122°39'0 0.0
2015-Feb-21 19:33N 47°32' W 122°39'1323.6
2015-Feb-21 19:00N 47°40' W 122°23'1327.3
2015-Feb-21 18:32N 47°32' W 122°39'0 0.0
2015-Feb-21 17:32N 47°32' W 122°39'0 0.0
2015-Feb-21 16:32N 47°32' W 122°39'0 0.0
2015-Feb-21 15:32N 47°32' W 122°39'1324.3
2015-Feb-21 15:00N 47°40' W 122°23'1327.3
2015-Feb-21 14:32N 47°32' W 122°39'0 0.0
2015-Feb-21 13:32N 47°32' W 122°39'  

Dump ship's entire track history